Georgetown, Connecticut
Current Conditions -  °F | °C
As of 5:53 AM on Thursday 23 Oct 2014 (Local Time) from KDXR Reporting Station
Light Rain Light Rain  
Wind Chill: 51°   Ceiling: 1900
Heat Index: 51°   Visibility: 8mi
Dew Point: 44°   Wind: 13mph
Humidity: 77%   Direction: 350°N
Pressure: 29.72"   Gusts: 20mph
Location:  41.26°N, 73.43°W
Report Text: KDXR 230953Z AUTO 35011G17KT 8SM -RA OVC019 11/07 A2972 RMK AO2 RAB26 SLP063 P0000 T01060067
Loading
Personal Weather Stations






























Interactive Weather Map
Tropical Storm Tracking
New forecast layout! Learn more

10-Day Weather Forecast

Advertisements
Track Severe Weather on mobile